sensor_id;sensor_type;location;lat;lon;timestamp;pressure;altitude;pressure_sealevel;temperature;humidity
69306;BME280;56427;51.580;4.656;2023-03-19T00:02:01;101037.34;;;9.96;100.00
69306;BME280;56427;51.580;4.656;2023-03-19T00:04:27;101039.59;;;9.89;100.00
69306;BME280;56427;51.580;4.656;2023-03-19T00:06:52;101036.88;;;9.91;100.00
69306;BME280;56427;51.580;4.656;2023-03-19T00:09:18;101047.47;;;9.88;100.00
69306;BME280;56427;51.580;4.656;2023-03-19T00:11:44;101050.31;;;9.96;100.00
69306;BME280;56427;51.580;4.656;2023-03-19T00:14:10;101047.94;;;9.93;100.00
69306;BME280;56427;51.580;4.656;2023-03-19T00:16:35;101046.56;;;10.00;100.00
69306;BME280;56427;51.580;4.656;2023-03-19T00:19:01;101051.38;;;9.93;100.00
69306;BME280;56427;51.580;4.656;2023-03-19T00:21:27;101056.81;;;9.90;100.00
69306;BME280;56427;51.580;4.656;2023-03-19T00:23:52;101053.97;;;9.93;100.00
69306;BME280;56427;51.580;4.656;2023-03-19T00:26:18;101058.53;;;9.90;100.00
69306;BME280;56427;51.580;4.656;2023-03-19T00:28:44;101053.25;;;9.80;100.00
69306;BME280;56427;51.580;4.656;2023-03-19T00:31:11;101059.16;;;9.71;100.00
69306;BME280;56427;51.580;4.656;2023-03-19T00:33:38;101061.25;;;9.66;100.00
69306;BME280;56427;51.580;4.656;2023-03-19T00:36:04;101057.72;;;9.67;100.00
69306;BME280;56427;51.580;4.656;2023-03-19T00:38:31;101060.06;;;9.70;100.00
69306;BME280;56427;51.580;4.656;2023-03-19T00:40:57;101065.38;;;9.68;100.00
69306;BME280;56427;51.580;4.656;2023-03-19T00:43:23;101067.59;;;9.62;100.00
69306;BME280;56427;51.580;4.656;2023-03-19T00:45:48;101069.72;;;9.56;100.00
69306;BME280;56427;51.580;4.656;2023-03-19T00:48:14;101069.13;;;9.53;100.00
69306;BME280;56427;51.580;4.656;2023-03-19T00:50:39;101066.28;;;9.45;100.00
69306;BME280;56427;51.580;4.656;2023-03-19T00:53:05;101070.41;;;9.47;100.00
69306;BME280;56427;51.580;4.656;2023-03-19T00:55:30;101071.56;;;9.32;100.00
69306;BME280;56427;51.580;4.656;2023-03-19T00:57:56;101077.78;;;9.29;100.00
69306;BME280;56427;51.580;4.656;2023-03-19T01:00:21;101075.53;;;9.25;100.00
69306;BME280;56427;51.580;4.656;2023-03-19T01:02:47;101075.16;;;9.18;100.00
69306;BME280;56427;51.580;4.656;2023-03-19T01:05:12;101066.44;;;9.19;100.00
69306;BME280;56427;51.580;4.656;2023-03-19T01:07:38;101066.66;;;9.16;100.00
69306;BME280;56427;51.580;4.656;2023-03-19T01:10:04;101074.28;;;9.06;100.00
69306;BME280;56427;51.580;4.656;2023-03-19T01:12:30;101075.22;;;9.05;100.00
69306;BME280;56427;51.580;4.656;2023-03-19T01:14:55;101073.56;;;9.04;100.00
69306;BME280;56427;51.580;4.656;2023-03-19T01:17:20;101068.84;;;8.98;100.00
69306;BME280;56427;51.580;4.656;2023-03-19T01:19:46;101075.06;;;8.95;100.00
69306;BME280;56427;51.580;4.656;2023-03-19T01:22:12;101073.25;;;8.84;100.00
69306;BME280;56427;51.580;4.656;2023-03-19T01:24:40;101075.41;;;8.91;100.00
69306;BME280;56427;51.580;4.656;2023-03-19T01:27:05;101070.88;;;8.81;100.00
69306;BME280;56427;51.580;4.656;2023-03-19T01:29:31;101076.28;;;8.78;100.00
69306;BME280;56427;51.580;4.656;2023-03-19T01:31:56;101084.72;;;8.69;100.00
69306;BME280;56427;51.580;4.656;2023-03-19T01:34:22;101083.88;;;8.69;100.00
69306;BME280;56427;51.580;4.656;2023-03-19T01:36:47;101081.44;;;8.54;100.00
69306;BME280;56427;51.580;4.656;2023-03-19T01:39:13;101084.97;;;8.53;100.00
69306;BME280;56427;51.580;4.656;2023-03-19T01:41:38;101080.06;;;8.61;100.00
69306;BME280;56427;51.580;4.656;2023-03-19T01:44:22;101083.16;;;8.66;100.00
69306;BME280;56427;51.580;4.656;2023-03-19T01:46:48;101083.25;;;8.65;100.00
69306;BME280;56427;51.580;4.656;2023-03-19T01:49:13;101083.16;;;8.66;100.00
69306;BME280;56427;51.580;4.656;2023-03-19T01:51:40;101077.75;;;8.70;100.00
69306;BME280;56427;51.580;4.656;2023-03-19T01:54:13;101078.34;;;8.62;100.00
69306;BME280;56427;51.580;4.656;2023-03-19T01:56:41;101081.13;;;8.59;100.00
69306;BME280;56427;51.580;4.656;2023-03-19T01:59:29;101088.78;;;8.60;100.00
69306;BME280;56427;51.580;4.656;2023-03-19T02:01:58;101091.91;;;8.53;100.00
69306;BME280;56427;51.580;4.656;2023-03-19T02:04:26;101088.91;;;8.46;100.00
69306;BME280;56427;51.580;4.656;2023-03-19T02:06:55;101094.47;;;8.40;100.00
69306;BME280;56427;51.580;4.656;2023-03-19T02:09:21;101090.25;;;8.39;100.00
69306;BME280;56427;51.580;4.656;2023-03-19T02:11:48;101085.09;;;8.39;100.00
69306;BME280;56427;51.580;4.656;2023-03-19T02:14:15;101083.94;;;8.30;100.00
69306;BME280;56427;51.580;4.656;2023-03-19T02:16:40;101086.97;;;8.24;100.00
69306;BME280;56427;51.580;4.656;2023-03-19T02:19:08;101092.69;;;8.16;100.00
69306;BME280;56427;51.580;4.656;2023-03-19T02:21:35;101106.41;;;8.17;100.00
69306;BME280;56427;51.580;4.656;2023-03-19T02:24:07;101100.66;;;8.00;100.00
69306;BME280;56427;51.580;4.656;2023-03-19T02:26:37;101096.19;;;8.15;100.00
69306;BME280;56427;51.580;4.656;2023-03-19T02:29:02;101093.00;;;8.11;100.00
69306;BME280;56427;51.580;4.656;2023-03-19T02:31:28;101102.63;;;7.97;100.00
69306;BME280;56427;51.580;4.656;2023-03-19T02:33:58;101096.28;;;8.01;100.00
69306;BME280;56427;51.580;4.656;2023-03-19T02:36:27;101094.66;;;8.00;100.00
69306;BME280;56427;51.580;4.656;2023-03-19T02:38:54;101101.81;;;7.96;100.00
69306;BME280;56427;51.580;4.656;2023-03-19T02:41:22;101105.59;;;7.90;100.00
69306;BME280;56427;51.580;4.656;2023-03-19T02:43:49;101101.81;;;7.96;100.00
69306;BME280;56427;51.580;4.656;2023-03-19T02:46:15;101098.91;;;7.88;100.00
69306;BME280;56427;51.580;4.656;2023-03-19T02:48:40;101102.00;;;7.80;100.00
69306;BME280;56427;51.580;4.656;2023-03-19T02:51:06;101097.53;;;7.69;100.00
69306;BME280;56427;51.580;4.656;2023-03-19T02:53:31;101093.72;;;7.62;100.00
69306;BME280;56427;51.580;4.656;2023-03-19T02:55:58;101092.38;;;7.69;100.00
69306;BME280;56427;51.580;4.656;2023-03-19T02:58:24;101103.00;;;7.78;100.00
69306;BME280;56427;51.580;4.656;2023-03-19T03:00:49;101105.50;;;7.66;100.00
69306;BME280;56427;51.580;4.656;2023-03-19T03:03:16;101107.34;;;7.64;100.00
69306;BME280;56427;51.580;4.656;2023-03-19T03:05:42;101099.91;;;7.60;100.00
69306;BME280;56427;51.580;4.656;2023-03-19T03:08:07;101101.06;;;7.55;100.00
69306;BME280;56427;51.580;4.656;2023-03-19T03:10:33;101093.19;;;7.44;100.00
69306;BME280;56427;51.580;4.656;2023-03-19T03:12:59;101091.84;;;7.39;100.00
69306;BME280;56427;51.580;4.656;2023-03-19T03:15:25;101092.22;;;7.32;100.00
69306;BME280;56427;51.580;4.656;2023-03-19T03:17:50;101090.66;;;7.30;100.00
69306;BME280;56427;51.580;4.656;2023-03-19T03:20:16;101106.28;;;7.41;100.00
69306;BME280;56427;51.580;4.656;2023-03-19T03:22:44;101104.84;;;7.50;100.00
69306;BME280;56427;51.580;4.656;2023-03-19T03:25:10;101104.41;;;7.43;100.00
69306;BME280;56427;51.580;4.656;2023-03-19T03:27:36;101106.91;;;7.32;100.00
69306;BME280;56427;51.580;4.656;2023-03-19T03:30:03;101106.69;;;7.35;100.00
69306;BME280;56427;51.580;4.656;2023-03-19T03:32:29;101107.16;;;7.14;100.00
69306;BME280;56427;51.580;4.656;2023-03-19T03:34:54;101107.34;;;7.11;100.00
69306;BME280;56427;51.580;4.656;2023-03-19T03:37:20;101108.91;;;7.14;100.00
69306;BME280;56427;51.580;4.656;2023-03-19T03:39:45;101108.75;;;7.30;100.00
69306;BME280;56427;51.580;4.656;2023-03-19T03:42:11;101105.81;;;7.22;100.00
69306;BME280;56427;51.580;4.656;2023-03-19T03:44:36;101109.66;;;7.16;100.00
69306;BME280;56427;51.580;4.656;2023-03-19T03:47:02;101110.13;;;7.08;100.00
69306;BME280;56427;51.580;4.656;2023-03-19T03:49:27;101105.44;;;7.28;100.00
69306;BME280;56427;51.580;4.656;2023-03-19T03:51:52;101096.25;;;7.24;100.00
69306;BME280;56427;51.580;4.656;2023-03-19T03:54:18;101099.31;;;7.16;100.00
69306;BME280;56427;51.580;4.656;2023-03-19T03:56:43;101099.94;;;7.19;100.00
69306;BME280;56427;51.580;4.656;2023-03-19T03:59:09;101105.59;;;7.12;100.00
69306;BME280;56427;51.580;4.656;2023-03-19T04:01:34;101106.81;;;7.06;100.00
69306;BME280;56427;51.580;4.656;2023-03-19T04:04:00;101107.44;;;7.10;100.00
69306;BME280;56427;51.580;4.656;2023-03-19T04:06:27;101113.66;;;7.07;100.00
69306;BME280;56427;51.580;4.656;2023-03-19T04:08:52;101117.44;;;7.02;100.00
69306;BME280;56427;51.580;4.656;2023-03-19T04:11:18;101114.22;;;6.98;100.00
69306;BME280;56427;51.580;4.656;2023-03-19T04:13:44;101116.66;;;6.87;100.00
69306;BME280;56427;51.580;4.656;2023-03-19T04:16:09;101115.94;;;6.85;100.00
69306;BME280;56427;51.580;4.656;2023-03-19T04:18:36;101107.41;;;6.97;100.00
69306;BME280;56427;51.580;4.656;2023-03-19T04:21:03;101114.69;;;6.90;100.00
69306;BME280;56427;51.580;4.656;2023-03-19T04:23:28;101104.66;;;6.58;100.00
69306;BME280;56427;51.580;4.656;2023-03-19T04:26:02;101105.16;;;6.22;100.00
69306;BME280;56427;51.580;4.656;2023-03-19T04:28:28;101103.94;;;6.28;100.00
69306;BME280;56427;51.580;4.656;2023-03-19T04:31:05;101108.84;;;6.32;100.00
69306;BME280;56427;51.580;4.656;2023-03-19T04:33:32;101110.28;;;6.36;100.00
69306;BME280;56427;51.580;4.656;2023-03-19T04:35:57;101108.19;;;6.29;100.00
69306;BME280;56427;51.580;4.656;2023-03-19T04:38:24;101109.03;;;6.29;100.00
69306;BME280;56427;51.580;4.656;2023-03-19T04:40:56;101112.44;;;6.15;100.00
69306;BME280;56427;51.580;4.656;2023-03-19T04:43:22;101122.00;;;6.13;100.00
69306;BME280;56427;51.580;4.656;2023-03-19T04:45:48;101117.38;;;6.18;100.00
69306;BME280;56427;51.580;4.656;2023-03-19T04:48:13;101123.66;;;6.14;100.00
69306;BME280;56427;51.580;4.656;2023-03-19T04:50:38;101120.63;;;6.07;100.00
69306;BME280;56427;51.580;4.656;2023-03-19T04:53:05;101124.94;;;6.07;100.00
69306;BME280;56427;51.580;4.656;2023-03-19T04:55:30;101130.19;;;6.20;100.00
69306;BME280;56427;51.580;4.656;2023-03-19T04:57:56;101133.06;;;6.15;100.00
69306;BME280;56427;51.580;4.656;2023-03-19T05:00:22;101142.09;;;5.78;100.00
69306;BME280;56427;51.580;4.656;2023-03-19T05:02:47;101143.63;;;5.66;100.00
69306;BME280;56427;51.580;4.656;2023-03-19T05:05:13;101143.97;;;5.60;100.00
69306;BME280;56427;51.580;4.656;2023-03-19T05:07:39;101155.44;;;5.54;100.00
69306;BME280;56427;51.580;4.656;2023-03-19T05:10:06;101151.69;;;5.60;100.00
69306;BME280;56427;51.580;4.656;2023-03-19T05:12:32;101158.75;;;5.86;100.00
69306;BME280;56427;51.580;4.656;2023-03-19T05:14:58;101149.16;;;5.88;100.00
69306;BME280;56427;51.580;4.656;2023-03-19T05:17:23;101146.75;;;6.01;100.00
69306;BME280;56427;51.580;4.656;2023-03-19T05:19:49;101150.25;;;6.00;100.00
69306;BME280;56427;51.580;4.656;2023-03-19T05:22:14;101152.44;;;6.06;100.00
69306;BME280;56427;51.580;4.656;2023-03-19T05:24:40;101159.81;;;6.13;100.00
69306;BME280;56427;51.580;4.656;2023-03-19T05:27:06;101156.31;;;5.99;100.00
69306;BME280;56427;51.580;4.656;2023-03-19T05:29:31;101162.59;;;5.79;100.00
69306;BME280;56427;51.580;4.656;2023-03-19T05:31:57;101161.38;;;5.70;100.00
69306;BME280;56427;51.580;4.656;2023-03-19T05:34:22;101164.66;;;5.58;100.00
69306;BME280;56427;51.580;4.656;2023-03-19T05:36:48;101167.16;;;5.60;100.00
69306;BME280;56427;51.580;4.656;2023-03-19T05:39:14;101171.59;;;5.42;100.00
69306;BME280;56427;51.580;4.656;2023-03-19T05:41:39;101174.81;;;5.45;100.00
69306;BME280;56427;51.580;4.656;2023-03-19T05:44:04;101175.44;;;5.34;100.00
69306;BME280;56427;51.580;4.656;2023-03-19T05:46:30;101171.88;;;5.05;100.00
69306;BME280;56427;51.580;4.656;2023-03-19T05:48:55;101179.75;;;4.86;100.00
69306;BME280;56427;51.580;4.656;2023-03-19T05:51:21;101181.66;;;4.83;100.00
69306;BME280;56427;51.580;4.656;2023-03-19T05:53:46;101189.78;;;4.75;100.00
69306;BME280;56427;51.580;4.656;2023-03-19T05:56:11;101198.59;;;5.03;100.00
69306;BME280;56427;51.580;4.656;2023-03-19T05:58:37;101203.63;;;5.36;100.00
69306;BME280;56427;51.580;4.656;2023-03-19T06:01:02;101193.84;;;5.43;100.00
69306;BME280;56427;51.580;4.656;2023-03-19T06:03:27;101195.56;;;5.58;100.00
69306;BME280;56427;51.580;4.656;2023-03-19T06:05:53;101214.03;;;5.81;100.00
69306;BME280;56427;51.580;4.656;2023-03-19T06:08:19;101203.69;;;5.97;100.00
69306;BME280;56427;51.580;4.656;2023-03-19T06:10:45;101214.06;;;6.25;100.00
69306;BME280;56427;51.580;4.656;2023-03-19T06:13:11;101210.84;;;6.36;100.00
69306;BME280;56427;51.580;4.656;2023-03-19T06:15:36;101219.59;;;6.48;100.00
69306;BME280;56427;51.580;4.656;2023-03-19T06:18:02;101222.34;;;6.59;100.00
69306;BME280;56427;51.580;4.656;2023-03-19T06:20:28;101215.81;;;6.68;100.00
69306;BME280;56427;51.580;4.656;2023-03-19T06:22:53;101219.69;;;6.75;100.00
69306;BME280;56427;51.580;4.656;2023-03-19T06:25:18;101211.03;;;6.91;100.00
69306;BME280;56427;51.580;4.656;2023-03-19T06:27:44;101232.75;;;6.87;100.00
69306;BME280;56427;51.580;4.656;2023-03-19T06:30:10;101241.13;;;6.90;100.00
69306;BME280;56427;51.580;4.656;2023-03-19T06:32:36;101237.06;;;7.00;100.00
69306;BME280;56427;51.580;4.656;2023-03-19T06:35:02;101238.38;;;6.93;100.00
69306;BME280;56427;51.580;4.656;2023-03-19T06:37:28;101239.91;;;7.10;100.00
69306;BME280;56427;51.580;4.656;2023-03-19T06:39:53;101243.78;;;7.03;100.00
69306;BME280;56427;51.580;4.656;2023-03-19T06:42:19;101250.63;;;7.04;100.00
69306;BME280;56427;51.580;4.656;2023-03-19T06:44:46;101251.34;;;7.06;100.00
69306;BME280;56427;51.580;4.656;2023-03-19T06:47:11;101246.81;;;7.10;100.00
69306;BME280;56427;51.580;4.656;2023-03-19T06:49:36;101243.69;;;7.19;100.00
69306;BME280;56427;51.580;4.656;2023-03-19T06:52:02;101251.88;;;7.26;100.00
69306;BME280;56427;51.580;4.656;2023-03-19T06:54:27;101254.50;;;7.39;100.00
69306;BME280;56427;51.580;4.656;2023-03-19T06:56:53;101255.16;;;7.42;100.00
69306;BME280;56427;51.580;4.656;2023-03-19T06:59:18;101258.53;;;7.43;100.00
69306;BME280;56427;51.580;4.656;2023-03-19T07:01:44;101257.91;;;7.39;100.00
69306;BME280;56427;51.580;4.656;2023-03-19T07:04:10;101256.06;;;7.41;100.00
69306;BME280;56427;51.580;4.656;2023-03-19T07:06:36;101258.06;;;7.50;100.00
69306;BME280;56427;51.580;4.656;2023-03-19T07:09:01;101265.03;;;7.63;100.00
69306;BME280;56427;51.580;4.656;2023-03-19T07:11:27;101265.47;;;7.69;100.00
69306;BME280;56427;51.580;4.656;2023-03-19T07:13:52;101267.84;;;7.72;100.00
69306;BME280;56427;51.580;4.656;2023-03-19T07:16:18;101259.41;;;7.83;100.00
69306;BME280;56427;51.580;4.656;2023-03-19T07:18:43;101258.38;;;7.86;100.00
69306;BME280;56427;51.580;4.656;2023-03-19T07:21:09;101259.56;;;8.07;100.00
69306;BME280;56427;51.580;4.656;2023-03-19T07:23:34;101268.09;;;8.22;100.00
69306;BME280;56427;51.580;4.656;2023-03-19T07:26:00;101279.03;;;8.26;100.00
69306;BME280;56427;51.580;4.656;2023-03-19T07:28:25;101274.66;;;8.14;100.00
69306;BME280;56427;51.580;4.656;2023-03-19T07:30:51;101290.00;;;8.29;100.00
69306;BME280;56427;51.580;4.656;2023-03-19T07:33:18;101281.94;;;8.34;100.00
69306;BME280;56427;51.580;4.656;2023-03-19T07:35:43;101289.84;;;8.58;100.00
69306;BME280;56427;51.580;4.656;2023-03-19T07:38:09;101291.81;;;8.55;100.00
69306;BME280;56427;51.580;4.656;2023-03-19T07:40:34;101297.41;;;8.61;100.00
69306;BME280;56427;51.580;4.656;2023-03-19T07:43:00;101291.41;;;8.74;100.00
69306;BME280;56427;51.580;4.656;2023-03-19T07:45:25;101287.75;;;8.76;100.00
69306;BME280;56427;51.580;4.656;2023-03-19T07:47:50;101299.38;;;8.71;100.00
69306;BME280;56427;51.580;4.656;2023-03-19T07:50:16;101302.56;;;8.74;100.00
69306;BME280;56427;51.580;4.656;2023-03-19T07:52:45;101305.56;;;8.81;100.00
69306;BME280;56427;51.580;4.656;2023-03-19T07:55:11;101303.19;;;8.78;100.00
69306;BME280;56427;51.580;4.656;2023-03-19T07:57:37;101294.50;;;8.92;100.00
69306;BME280;56427;51.580;4.656;2023-03-19T08:00:03;101299.38;;;8.96;100.00
69306;BME280;56427;51.580;4.656;2023-03-19T08:02:29;101286.16;;;9.12;100.00
69306;BME280;56427;51.580;4.656;2023-03-19T08:04:54;101301.16;;;9.20;100.00
69306;BME280;56427;51.580;4.656;2023-03-19T08:07:20;101300.13;;;9.60;100.00
69306;BME280;56427;51.580;4.656;2023-03-19T08:09:45;101297.97;;;9.77;100.00
69306;BME280;56427;51.580;4.656;2023-03-19T08:12:11;101299.50;;;9.56;100.00
69306;BME280;56427;51.580;4.656;2023-03-19T08:14:37;101302.13;;;9.91;100.00
69306;BME280;56427;51.580;4.656;2023-03-19T08:17:03;101295.25;;;10.03;100.00
69306;BME280;56427;51.580;4.656;2023-03-19T08:19:28;101299.88;;;10.22;100.00
69306;BME280;56427;51.580;4.656;2023-03-19T08:21:53;101301.88;;;10.43;100.00
69306;BME280;56427;51.580;4.656;2023-03-19T08:24:19;101305.19;;;10.21;100.00
69306;BME280;56427;51.580;4.656;2023-03-19T08:26:44;101311.13;;;9.99;100.00
69306;BME280;56427;51.580;4.656;2023-03-19T08:29:10;101312.19;;;9.96;100.00
69306;BME280;56427;51.580;4.656;2023-03-19T08:31:36;101314.19;;;9.92;100.00
69306;BME280;56427;51.580;4.656;2023-03-19T08:34:01;101312.34;;;9.82;100.00
69306;BME280;56427;51.580;4.656;2023-03-19T08:36:29;101324.56;;;9.55;100.00
69306;BME280;56427;51.580;4.656;2023-03-19T08:38:54;101321.94;;;9.44;100.00
69306;BME280;56427;51.580;4.656;2023-03-19T08:41:21;101323.78;;;9.42;100.00
69306;BME280;56427;51.580;4.656;2023-03-19T08:43:47;101323.03;;;9.53;100.00
69306;BME280;56427;51.580;4.656;2023-03-19T08:46:12;101326.16;;;9.82;100.00
69306;BME280;56427;51.580;4.656;2023-03-19T08:48:38;101323.06;;;9.77;100.00
69306;BME280;56427;51.580;4.656;2023-03-19T08:51:03;101323.94;;;9.65;100.00
69306;BME280;56427;51.580;4.656;2023-03-19T08:53:29;101325.25;;;9.94;100.00
69306;BME280;56427;51.580;4.656;2023-03-19T08:56:00;101330.38;;;9.83;100.00
69306;BME280;56427;51.580;4.656;2023-03-19T08:58:26;101331.59;;;9.66;100.00
69306;BME280;56427;51.580;4.656;2023-03-19T09:00:52;101330.81;;;10.01;100.00
69306;BME280;56427;51.580;4.656;2023-03-19T09:03:19;101330.31;;;9.96;100.00
69306;BME280;56427;51.580;4.656;2023-03-19T09:05:45;101332.38;;;10.04;100.00
69306;BME280;56427;51.580;4.656;2023-03-19T09:08:11;101333.53;;;10.00;100.00
69306;BME280;56427;51.580;4.656;2023-03-19T09:10:37;101336.28;;;10.09;100.00
69306;BME280;56427;51.580;4.656;2023-03-19T09:13:02;101341.28;;;10.48;100.00
69306;BME280;56427;51.580;4.656;2023-03-19T09:15:27;101356.50;;;10.28;100.00
69306;BME280;56427;51.580;4.656;2023-03-19T09:17:53;101344.59;;;10.26;100.00
69306;BME280;56427;51.580;4.656;2023-03-19T09:20:19;101360.09;;;10.39;100.00
69306;BME280;56427;51.580;4.656;2023-03-19T09:22:44;101358.84;;;10.20;100.00
69306;BME280;56427;51.580;4.656;2023-03-19T09:25:10;101366.50;;;10.46;100.00
69306;BME280;56427;51.580;4.656;2023-03-19T09:27:35;101372.31;;;10.49;100.00
69306;BME280;56427;51.580;4.656;2023-03-19T09:30:01;101371.56;;;10.47;100.00
69306;BME280;56427;51.580;4.656;2023-03-19T09:32:27;101370.16;;;10.19;100.00
69306;BME280;56427;51.580;4.656;2023-03-19T09:34:53;101375.72;;;10.50;100.00
69306;BME280;56427;51.580;4.656;2023-03-19T09:37:18;101382.78;;;10.48;100.00
69306;BME280;56427;51.580;4.656;2023-03-19T09:39:43;101377.34;;;10.40;100.00
69306;BME280;56427;51.580;4.656;2023-03-19T09:44:53;101387.31;;;10.09;100.00
69306;BME280;56427;51.580;4.656;2023-03-19T09:47:23;101391.84;;;10.18;100.00
69306;BME280;56427;51.580;4.656;2023-03-19T09:49:51;101394.59;;;10.28;100.00
69306;BME280;56427;51.580;4.656;2023-03-19T09:52:50;101403.41;;;10.38;100.00
69306;BME280;56427;51.580;4.656;2023-03-19T09:55:47;101402.00;;;10.45;100.00
69306;BME280;56427;51.580;4.656;2023-03-19T09:58:19;101403.75;;;10.21;100.00
69306;BME280;56427;51.580;4.656;2023-03-19T10:00:49;101405.38;;;10.10;100.00
69306;BME280;56427;51.580;4.656;2023-03-19T10:03:58;101408.28;;;10.06;100.00
69306;BME280;56427;51.580;4.656;2023-03-19T10:11:41;101415.13;;;10.55;100.00
69306;BME280;56427;51.580;4.656;2023-03-19T10:17:00;101411.13;;;10.62;100.00
69306;BME280;56427;51.580;4.656;2023-03-19T10:19:55;101411.75;;;10.66;100.00
69306;BME280;56427;51.580;4.656;2023-03-19T10:22:58;101423.44;;;10.72;100.00
69306;BME280;56427;51.580;4.656;2023-03-19T10:25:26;101428.59;;;10.60;100.00
69306;BME280;56427;51.580;4.656;2023-03-19T10:28:14;101425.63;;;10.54;100.00
69306;BME280;56427;51.580;4.656;2023-03-19T10:30:41;101430.81;;;10.54;100.00
69306;BME280;56427;51.580;4.656;2023-03-19T10:33:36;101421.13;;;10.91;100.00
69306;BME280;56427;51.580;4.656;2023-03-19T10:36:09;101415.94;;;10.91;100.00
69306;BME280;56427;51.580;4.656;2023-03-19T10:38:41;101423.59;;;10.93;100.00
69306;BME280;56427;51.580;4.656;2023-03-19T10:43:59;101432.03;;;11.30;100.00
69306;BME280;56427;51.580;4.656;2023-03-19T10:46:25;101431.28;;;11.62;100.00
69306;BME280;56427;51.580;4.656;2023-03-19T10:48:50;101438.28;;;11.73;100.00
69306;BME280;56427;51.580;4.656;2023-03-19T10:51:21;101436.00;;;11.79;100.00
69306;BME280;56427;51.580;4.656;2023-03-19T10:53:51;101439.91;;;11.06;100.00
69306;BME280;56427;51.580;4.656;2023-03-19T10:56:22;101442.06;;;11.12;100.00
69306;BME280;56427;51.580;4.656;2023-03-19T10:59:09;101445.09;;;11.06;100.00
69306;BME280;56427;51.580;4.656;2023-03-19T11:01:44;101444.19;;;11.07;100.00
69306;BME280;56427;51.580;4.656;2023-03-19T11:04:13;101448.19;;;11.22;100.00
69306;BME280;56427;51.580;4.656;2023-03-19T11:06:40;101444.19;;;11.30;100.00
69306;BME280;56427;51.580;4.656;2023-03-19T11:11:44;101453.66;;;11.65;100.00
69306;BME280;56427;51.580;4.656;2023-03-19T11:19:39;101456.34;;;11.40;100.00
69306;BME280;56427;51.580;4.656;2023-03-19T11:22:14;101456.00;;;11.45;100.00
69306;BME280;56427;51.580;4.656;2023-03-19T11:24:56;101460.91;;;11.03;100.00
69306;BME280;56427;51.580;4.656;2023-03-19T11:27:41;101463.16;;;10.96;100.00
69306;BME280;56427;51.580;4.656;2023-03-19T11:30:18;101459.88;;;11.05;100.00
69306;BME280;56427;51.580;4.656;2023-03-19T11:35:31;101449.25;;;10.62;100.00
69306;BME280;56427;51.580;4.656;2023-03-19T11:38:00;101470.22;;;10.94;100.00
69306;BME280;56427;51.580;4.656;2023-03-19T11:49:05;101477.13;;;10.71;100.00
69306;BME280;56427;51.580;4.656;2023-03-19T11:51:51;101475.03;;;10.76;100.00
69306;BME280;56427;51.580;4.656;2023-03-19T11:57:30;101479.41;;;11.56;100.00
69306;BME280;56427;51.580;4.656;2023-03-19T12:08:41;101455.03;;;12.88;100.00
69306;BME280;56427;51.580;4.656;2023-03-19T12:16:19;101468.00;;;12.46;100.00
69306;BME280;56427;51.580;4.656;2023-03-19T12:19:12;101460.84;;;12.39;100.00
69306;BME280;56427;51.580;4.656;2023-03-19T12:34:56;101453.44;;;12.76;100.00
69306;BME280;56427;51.580;4.656;2023-03-19T12:37:34;101459.38;;;12.46;100.00
69306;BME280;56427;51.580;4.656;2023-03-19T12:40:36;101460.81;;;12.71;100.00
69306;BME280;56427;51.580;4.656;2023-03-19T12:43:17;101467.88;;;12.80;100.00
69306;BME280;56427;51.580;4.656;2023-03-19T12:45:46;101472.84;;;12.51;100.00
69306;BME280;56427;51.580;4.656;2023-03-19T12:48:19;101462.16;;;12.65;100.00
69306;BME280;56427;51.580;4.656;2023-03-19T12:50:49;101474.03;;;13.00;100.00
69306;BME280;56427;51.580;4.656;2023-03-19T12:56:12;101470.53;;;12.90;100.00
69306;BME280;56427;51.580;4.656;2023-03-19T12:58:52;101468.56;;;12.82;100.00
69306;BME280;56427;51.580;4.656;2023-03-19T13:01:27;101467.38;;;12.86;100.00
69306;BME280;56427;51.580;4.656;2023-03-19T13:04:02;101482.94;;;12.44;100.00
69306;BME280;56427;51.580;4.656;2023-03-19T13:06:34;101481.47;;;12.19;100.00
69306;BME280;56427;51.580;4.656;2023-03-19T13:09:12;101483.25;;;12.51;100.00
69306;BME280;56427;51.580;4.656;2023-03-19T13:11:48;101482.13;;;12.44;100.00
69306;BME280;56427;51.580;4.656;2023-03-19T13:17:06;101488.44;;;12.62;100.00
69306;BME280;56427;51.580;4.656;2023-03-19T13:19:46;101490.50;;;12.47;100.00
69306;BME280;56427;51.580;4.656;2023-03-19T13:22:16;101493.56;;;12.52;100.00
69306;BME280;56427;51.580;4.656;2023-03-19T13:24:45;101495.94;;;12.44;100.00
69306;BME280;56427;51.580;4.656;2023-03-19T13:32:43;101500.19;;;12.13;100.00
69306;BME280;56427;51.580;4.656;2023-03-19T13:35:50;101506.31;;;12.23;100.00
69306;BME280;56427;51.580;4.656;2023-03-19T13:38:20;101499.88;;;12.39;100.00
69306;BME280;56427;51.580;4.656;2023-03-19T13:40:48;101497.47;;;12.14;100.00
69306;BME280;56427;51.580;4.656;2023-03-19T13:45:51;101484.69;;;12.55;100.00
69306;BME280;56427;51.580;4.656;2023-03-19T13:53:51;101490.66;;;12.34;100.00
69306;BME280;56427;51.580;4.656;2023-03-19T13:56:17;101503.16;;;11.97;100.00
69306;BME280;56427;51.580;4.656;2023-03-19T13:58:51;101508.72;;;11.81;100.00
69306;BME280;56427;51.580;4.656;2023-03-19T14:03:57;101509.19;;;11.75;100.00
69306;BME280;56427;51.580;4.656;2023-03-19T14:06:37;101519.59;;;11.86;100.00
69306;BME280;56427;51.580;4.656;2023-03-19T14:09:05;101528.31;;;11.85;100.00
69306;BME280;56427;51.580;4.656;2023-03-19T14:11:34;101525.09;;;11.48;100.00
69306;BME280;56427;51.580;4.656;2023-03-19T14:14:06;101529.63;;;11.68;100.00
69306;BME280;56427;51.580;4.656;2023-03-19T14:16:41;101532.53;;;11.41;100.00
69306;BME280;56427;51.580;4.656;2023-03-19T14:19:16;101543.91;;;11.40;100.00